Brewster Field

About
Name: Brewster Field
Identifier:  /KHDE
Local Time:  17. Aug 23:42 CDT
Location
Flights per Day
0 flights
Distance: 304km (189mi)
Punctuality
50% (0 flights per day delayed)
Delay Average: 51 minutes
Current Weather
 23 C (Humidity: 94%)
  7kt (12km/h / 8mph) from 150°
  16km (10 mi.)
 
 METAR KHDE 180415Z AUTO 15007KT 10SM CLR 23/22 A2972 RMK AO2 T02330222

Current Flights

Departures
Number Departure To Airline
Arrivals
Number Arrival From Airline

Current Delays

Departures
N/A
Arrivals
N/A

Destinations

Top Destinations
Airport Flights
per week
Seats
per week
  Hays (HYS) 2 - 0 0
  Lincoln (LNK) 1 - 0 0
  Olathe (JCI) 0 - 0 0
  Omaha (OMA) 0 - 0 0
  Osceola (OEO) 0 - 0 0
  Kearney (EAR) 0 - 0 0
  Denver (BJC) 0 - 0 0
  Cedar Rapids (CID) 0 - 0 0
  Sioux Falls (FSD) 0 - 0 0
  Sidney (SNY) 0 - 0 0
  Colorado Springs (COS) 0 - 0 0
  Millington (NQA) 0 - 0 0

Airlines & Planes

Top Airlines
Airline Flights
per Day
Seats
per Day
Nordwind Airlines 0 -
  National Airlines 0 -
Silverhawk Aviation 0 -
  Novair 0 -
  Federal Express (FedEx) 0 -
Top Plane Types
Model Flights Seats
Piper PA-46-350P Malibu Mirage 0.6/day - 0
Beech E90 King Air 0.3/day - 0
Cessna C208 0.0/day - 0